Time;durP1;ratioP1;P1;durP2;ratioP2;P2;SDS_P1;SDS_P2;PMS_P1;PMS_P2;Temp;Humidity;BMP_temperature;BMP_pressure;BME280_temperature;BME280_humidity;BME280_pressure;Samples;Min_cycle;Max_cycle;Signal;HPM_P1;HPM_P2
2022/09/28 00:01:56;;;;;;;12.75;9.60;;;8.30;99.90;;;;;;5064692;28;20507;-50
2022/09/28 00:04:22;;;;;;;10.85;9.73;;;8.30;99.90;;;;;;5068306;28;20521;-52
2022/09/28 00:06:48;;;;;;;10.00;9.00;;;8.40;99.90;;;;;;5083900;28;20046;-51
2022/09/28 00:09:15;;;;;;;10.50;9.43;;;8.30;99.90;;;;;;5065401;28;20052;-50
2022/09/28 00:11:42;;;;;;;17.10;9.50;;;8.40;99.90;;;;;;5065317;28;20396;-49
2022/09/28 00:14:12;;;;;;;10.93;9.30;;;8.30;99.90;;;;;;5078024;28;20123;-49
2022/09/28 00:16:40;;;;;;;10.13;8.82;;;8.40;99.90;;;;;;5070990;28;20041;-52
2022/09/28 00:19:07;;;;;;;10.23;9.13;;;8.30;99.90;;;;;;5064885;28;20080;-50
2022/09/28 00:21:35;;;;;;;12.45;10.13;;;8.30;99.90;;;;;;5067533;28;20048;-49
2022/09/28 00:24:16;;;;;;;15.15;10.35;;;8.30;99.90;;;;;;5089482;28;20051;-49
2022/09/28 00:26:54;;;;;;;11.00;9.90;;;8.20;99.90;;;;;;5069719;28;20040;-51
2022/09/28 00:29:35;;;;;;;13.50;10.57;;;8.20;99.90;;;;;;5086102;28;20411;-54
2022/09/28 00:32:05;;;;;;;13.65;9.98;;;8.20;99.90;;;;;;5063382;28;20198;-50
2022/09/28 00:34:34;;;;;;;10.27;9.15;;;8.10;99.90;;;;;;5076714;28;20059;-48
2022/09/28 00:37:01;;;;;;;12.75;9.52;;;8.10;99.90;;;;;;5068619;28;20083;-53
2022/09/28 00:39:30;;;;;;;10.93;9.52;;;8.10;99.90;;;;;;5070522;28;20051;-49
2022/09/28 00:41:56;;;;;;;14.68;9.43;;;8.20;99.90;;;;;;5050264;28;20056;-49
2022/09/28 00:44:25;;;;;;;12.65;9.85;;;8.10;99.90;;;;;;5049737;28;20049;-49
2022/09/28 00:47:21;;;;;;;10.55;9.20;;;8.00;99.90;;;;;;5055987;28;20518;-51
2022/09/28 00:50:09;;;;;;;11.68;10.05;;;8.10;99.90;;;;;;5049329;28;20049;-48
2022/09/28 00:53:03;;;;;;;12.20;9.65;;;8.00;99.90;;;;;;5049013;28;20066;-51
2022/09/28 00:55:51;;;;;;;12.80;10.18;;;8.00;99.90;;;;;;5051479;28;20060;-52
2022/09/28 00:58:22;;;;;;;12.48;9.75;;;8.00;99.90;;;;;;5057704;28;20565;-52
2022/09/28 01:00:48;;;;;;;13.15;9.75;;;8.00;99.90;;;;;;5052891;28;20055;-48
2022/09/28 01:03:15;;;;;;;11.65;9.93;;;8.00;99.90;;;;;;5052888;28;20056;-49
2022/09/28 01:05:42;;;;;;;12.90;10.15;;;8.00;99.90;;;;;;5051950;28;20083;-53
2022/09/28 01:08:09;;;;;;;10.57;9.48;;;8.00;99.90;;;;;;5055650;28;20049;-49
2022/09/28 01:10:35;;;;;;;12.00;9.20;;;8.00;99.90;;;;;;5053533;28;20055;-51
2022/09/28 01:13:01;;;;;;;12.95;10.25;;;8.00;99.90;;;;;;5054373;28;20044;-49
2022/09/28 01:15:28;;;;;;;11.40;10.07;;;7.90;99.90;;;;;;5050614;28;20496;-50
2022/09/28 01:18:10;;;;;;;11.95;10.52;;;8.00;99.90;;;;;;5043085;28;20542;-51
2022/09/28 01:20:51;;;;;;;14.20;11.25;;;7.90;99.90;;;;;;5042956;28;20052;-52
2022/09/28 01:23:49;;;;;;;13.57;11.63;;;7.90;99.90;;;;;;5040717;28;20420;-50
2022/09/28 01:26:23;;;;;;;11.13;9.90;;;7.90;99.90;;;;;;5047658;28;20251;-50
2022/09/28 01:28:56;;;;;;;11.55;10.25;;;7.80;99.90;;;;;;5052265;28;20087;-50
2022/09/28 01:31:28;;;;;;;11.07;9.25;;;7.80;99.90;;;;;;5050623;28;20487;-50
2022/09/28 01:33:59;;;;;;;11.75;10.55;;;7.70;99.90;;;;;;5054360;28;20102;-49
2022/09/28 01:36:55;;;;;;;13.25;10.77;;;7.70;99.90;;;;;;5055148;28;20372;-50
2022/09/28 01:39:33;;;;;;;13.63;10.63;;;7.70;99.90;;;;;;5044880;28;20051;-50
2022/09/28 01:42:06;;;;;;;12.82;11.02;;;7.60;99.90;;;;;;5055879;28;20119;-55
2022/09/28 01:44:38;;;;;;;12.55;11.15;;;7.60;99.90;;;;;;5045749;28;20057;-54
2022/09/28 01:47:08;;;;;;;15.18;11.75;;;7.60;99.90;;;;;;5027049;28;20060;-54
2022/09/28 01:49:40;;;;;;;15.82;11.48;;;7.60;99.90;;;;;;5057025;28;20041;-52
2022/09/28 01:52:21;;;;;;;15.23;11.93;;;7.60;99.90;;;;;;5047501;28;20127;-49
2022/09/28 01:55:02;;;;;;;14.23;11.40;;;7.60;99.90;;;;;;5023870;28;20075;-52
2022/09/28 01:57:44;;;;;;;18.23;12.15;;;7.60;99.90;;;;;;5044949;28;20049;-49
2022/09/28 02:00:13;;;;;;;13.88;11.82;;;7.60;99.90;;;;;;5053787;28;20058;-48
2022/09/28 02:02:53;;;;;;;14.55;10.90;;;7.50;99.90;;;;;;5029305;28;20055;-51
2022/09/28 02:05:51;;;;;;;13.38;10.73;;;7.50;99.90;;;;;;5043794;28;20162;-50
2022/09/28 02:08:25;;;;;;;25.98;12.07;;;7.50;99.90;;;;;;4953064;28;20449;-50
2022/09/28 02:10:59;;;;;;;20.15;12.52;;;7.50;99.90;;;;;;4952789;28;20046;-48
2022/09/28 02:13:29;;;;;;;;;;;7.60;99.90;;;;;;4950378;28;20619;-49
2022/09/28 02:16:15;;;;;;;12.43;11.13;;;7.50;99.90;;;;;;4957764;28;20303;-48
2022/09/28 02:18:41;;;;;;;14.10;11.23;;;7.50;99.90;;;;;;4959798;28;20094;-49
2022/09/28 02:21:30;;;;;;;13.75;11.85;;;7.50;99.90;;;;;;4955128;28;20055;-49
2022/09/28 02:24:20;;;;;;;52.67;11.27;;;7.50;99.90;;;;;;4954397;28;20057;-50
2022/09/28 02:26:48;;;;;;;29.65;10.80;;;7.50;99.90;;;;;;4959570;28;20054;-48
2022/09/28 02:29:14;;;;;;;62.00;10.25;;;7.50;99.90;;;;;;4954445;28;20055;-55
2022/09/28 02:31:40;;;;;;;70.93;9.30;;;7.50;99.90;;;;;;4950201;28;20616;-50
2022/09/28 02:34:06;;;;;;;15.93;8.38;;;7.50;99.90;;;;;;4943766;28;20050;-51
2022/09/28 02:36:32;;;;;;;18.98;7.97;;;7.50;99.90;;;;;;4947716;28;20536;-49
2022/09/28 02:39:01;;;;;;;20.63;8.80;;;7.50;99.90;;;;;;4960619;28;20059;-51
2022/09/28 02:41:46;;;;;;;12.00;9.80;;;7.40;99.90;;;;;;4956669;28;20425;-50
2022/09/28 02:44:37;;;;;;;13.48;10.63;;;7.50;99.90;;;;;;5002430;28;20057;-49
2022/09/28 02:47:24;;;;;;;13.98;10.35;;;7.50;99.90;;;;;;5058495;28;20044;-49
2022/09/28 02:50:04;;;;;;;12.68;9.80;;;7.50;99.90;;;;;;5058652;28;20446;-54
2022/09/28 02:52:54;;;;;;;13.93;10.38;;;7.50;99.90;;;;;;5034534;28;20060;-49
2022/09/28 02:55:30;;;;;;;13.27;10.77;;;7.50;99.90;;;;;;5054004;28;20134;-51
2022/09/28 02:58:11;;;;;;;12.30;10.35;;;7.50;99.90;;;;;;5052986;28;20450;-53
2022/09/28 03:00:47;;;;;;;14.20;10.63;;;7.60;99.90;;;;;;5053136;28;20120;-49
2022/09/28 03:03:50;;;;;;;15.70;10.48;;;7.50;99.90;;;;;;5055179;28;20126;-50
2022/09/28 03:06:22;;;;;;;16.20;11.23;;;7.60;99.90;;;;;;5054785;28;20076;-51
2022/09/28 03:09:01;;;;;;;25.88;11.60;;;7.60;99.90;;;;;;5054110;28;20426;-50
2022/09/28 03:11:36;;;;;;;19.90;10.57;;;7.60;99.90;;;;;;5066999;28;20065;-49
2022/09/28 03:14:03;;;;;;;11.77;10.57;;;7.60;99.90;;;;;;5053960;28;20052;-50
2022/09/28 03:16:30;;;;;;;12.32;10.27;;;7.60;99.90;;;;;;5030420;28;20142;-49
2022/09/28 03:18:56;;;;;;;14.30;11.50;;;7.50;99.90;;;;;;5034168;28;20053;-52
2022/09/28 03:21:22;;;;;;;12.70;10.07;;;7.50;99.90;;;;;;5058615;28;20078;-50
2022/09/28 03:23:48;;;;;;;11.43;10.32;;;7.50;99.90;;;;;;5046954;28;20575;-52
2022/09/28 03:26:15;;;;;;;14.05;10.32;;;7.50;99.90;;;;;;5060969;28;20136;-48
2022/09/28 03:28:41;;;;;;;15.48;12.40;;;7.50;99.90;;;;;;5051809;28;20059;-50
2022/09/28 03:31:07;;;;;;;16.60;13.63;;;7.50;99.90;;;;;;5068205;28;20047;-50
2022/09/28 03:33:33;;;;;;;16.17;12.80;;;7.50;99.90;;;;;;5051244;28;20049;-49
2022/09/28 03:35:59;;;;;;;16.92;13.18;;;7.50;99.90;;;;;;5059258;28;20041;-49
2022/09/28 03:38:25;;;;;;;17.85;13.50;;;7.50;99.90;;;;;;5057988;28;20116;-48
2022/09/28 03:40:59;;;;;;;14.27;12.68;;;7.50;99.90;;;;;;5051547;28;20041;-52
2022/09/28 03:43:29;;;;;;;14.45;12.40;;;7.50;99.90;;;;;;5033284;28;20053;-50
2022/09/28 03:46:03;;;;;;;14.98;12.63;;;7.50;99.90;;;;;;5050431;28;20126;-49
2022/09/28 03:48:32;;;;;;;;;;;7.50;99.90;;;;;;5056047;28;20149;-49
2022/09/28 03:51:00;;;;;;;12.85;11.50;;;7.50;99.90;;;;;;5052806;28;20183;-51
2022/09/28 03:53:29;;;;;;;12.63;11.30;;;7.50;99.90;;;;;;5044551;28;20098;-48
2022/09/28 03:55:55;;;;;;;12.82;10.95;;;7.50;99.90;;;;;;5051136;28;20052;-52
2022/09/28 03:58:22;;;;;;;15.45;12.10;;;7.60;99.90;;;;;;5046666;28;20103;-54
2022/09/28 04:00:48;;;;;;;22.92;12.70;;;7.60;99.90;;;;;;5054361;28;20046;-48
2022/09/28 04:03:14;;;;;;;17.42;12.77;;;7.60;99.90;;;;;;5030032;28;20122;-50
2022/09/28 04:05:51;;;;;;;18.08;12.93;;;7.60;99.90;;;;;;5047396;28;20052;-52
2022/09/28 04:08:17;;;;;;;19.00;14.98;;;7.60;99.90;;;;;;5052265;28;20055;-48
2022/09/28 04:10:42;;;;;;;18.08;14.68;;;7.60;99.90;;;;;;5047509;28;20472;-51
2022/09/28 04:13:08;;;;;;;20.60;14.60;;;7.60;99.90;;;;;;5045427;28;20040;-55
2022/09/28 04:15:35;;;;;;;18.75;13.52;;;7.70;99.90;;;;;;5047955;28;20056;-50
2022/09/28 04:18:11;;;;;;;19.35;13.95;;;7.60;99.90;;;;;;5054482;28;20053;-49
2022/09/28 04:20:39;;;;;;;18.20;14.90;;;7.60;99.90;;;;;;5058640;28;20098;-48
2022/09/28 04:23:05;;;;;;;21.45;14.77;;;7.70;99.90;;;;;;5050068;28;20127;-48
2022/09/28 04:25:31;;;;;;;19.90;13.88;;;7.60;99.90;;;;;;5050055;28;20094;-48
2022/09/28 04:30:41;;;;;;;21.48;14.15;;;7.70;99.90;;;;;;5048273;28;20045;-47
2022/09/28 04:33:07;;;;;;;18.15;15.48;;;7.70;99.90;;;;;;5048420;28;20285;-50
2022/09/28 04:35:33;;;;;;;22.10;15.98;;;7.70;99.90;;;;;;5057493;28;20121;-48
2022/09/28 04:37:59;;;;;;;22.15;16.23;;;7.70;99.90;;;;;;5053654;28;20053;-52
2022/09/28 04:40:24;;;;;;;21.73;16.27;;;7.80;99.90;;;;;;5047218;28;20132;-49
2022/09/28 04:42:54;;;;;;;18.75;15.48;;;7.80;99.90;;;;;;5063512;28;20131;-48
2022/09/28 04:45:20;;;;;;;21.20;15.80;;;7.80;99.90;;;;;;5070602;28;20050;-49
2022/09/28 04:47:46;;;;;;;19.25;15.07;;;7.80;99.90;;;;;;5051901;28;20052;-50
2022/09/28 04:50:12;;;;;;;20.42;16.73;;;7.80;99.90;;;;;;5071883;28;20167;-52
2022/09/28 04:52:37;;;;;;;19.70;16.50;;;7.80;99.90;;;;;;5072807;28;20052;-52
2022/09/28 04:55:05;;;;;;;18.20;15.80;;;7.80;99.90;;;;;;5071945;28;20055;-50
2022/09/28 04:57:33;;;;;;;22.90;16.98;;;7.80;99.90;;;;;;5069725;28;20045;-50
2022/09/28 04:59:59;;;;;;;26.17;17.25;;;7.70;99.90;;;;;;5073635;28;20497;-49
2022/09/28 05:02:26;;;;;;;17.17;14.98;;;7.70;99.90;;;;;;5068393;28;20044;-48
2022/09/28 05:04:57;;;;;;;20.88;15.65;;;7.70;99.90;;;;;;5072563;28;20109;-50
2022/09/28 05:07:24;;;;;;;17.77;15.57;;;7.70;99.90;;;;;;5063196;28;20048;-51
2022/09/28 05:09:50;;;;;;;22.40;16.98;;;7.70;99.90;;;;;;5063106;28;20443;-51
2022/09/28 05:12:15;;;;;;;19.23;15.35;;;7.80;99.90;;;;;;5067144;28;20040;-48
2022/09/28 05:14:41;;;;;;;18.20;16.25;;;7.70;99.90;;;;;;5071948;28;20048;-50
2022/09/28 05:17:08;;;;;;;19.20;15.80;;;7.70;99.90;;;;;;5069466;28;20044;-49
2022/09/28 05:19:33;;;;;;;20.00;15.07;;;7.70;99.90;;;;;;5070344;28;20052;-48
2022/09/28 05:22:03;;;;;;;20.55;16.10;;;7.70;99.90;;;;;;5080436;28;20249;-52
2022/09/28 05:24:29;;;;;;;18.35;15.32;;;7.70;99.90;;;;;;5071168;28;20117;-52
2022/09/28 05:26:55;;;;;;;18.80;16.00;;;7.70;99.90;;;;;;5066755;28;20052;-52
2022/09/28 05:29:28;;;;;;;21.35;16.00;;;7.70;99.90;;;;;;5062402;28;20063;-56
2022/09/28 05:31:53;;;;;;;20.10;15.60;;;7.60;99.90;;;;;;5063052;28;20554;-53
2022/09/28 05:34:19;;;;;;;18.13;14.48;;;7.70;99.90;;;;;;5080834;28;20051;-54
2022/09/28 05:36:45;;;;;;;18.80;15.93;;;7.60;99.90;;;;;;5077651;28;20063;-51
2022/09/28 05:39:11;;;;;;;18.85;15.55;;;7.60;99.90;;;;;;5070630;28;20063;-48
2022/09/28 05:41:36;;;;;;;20.77;15.32;;;7.50;99.90;;;;;;5068787;28;20060;-49
2022/09/28 05:44:02;;;;;;;19.35;15.32;;;7.50;99.90;;;;;;5069897;28;20059;-48
2022/09/28 05:46:31;;;;;;;19.52;15.85;;;7.50;99.90;;;;;;5066944;28;20104;-53
2022/09/28 05:48:58;;;;;;;21.38;15.88;;;7.40;99.90;;;;;;5067331;28;20040;-49
2022/09/28 05:51:24;;;;;;;18.83;15.65;;;7.50;99.90;;;;;;5062696;28;20579;-49
2022/09/28 05:53:53;;;;;;;23.35;16.40;;;7.40;99.90;;;;;;5068007;28;20052;-49
2022/09/28 05:56:18;;;;;;;25.35;16.42;;;7.40;99.90;;;;;;5064626;28;20072;-50
2022/09/28 05:58:44;;;;;;;25.10;16.02;;;7.30;99.90;;;;;;5054516;28;20171;-53
2022/09/28 06:01:09;;;;;;;19.38;15.63;;;7.30;99.90;;;;;;5066620;28;20044;-49
2022/09/28 06:03:35;;;;;;;21.27;16.65;;;7.30;99.90;;;;;;5070593;28;20045;-51
2022/09/28 06:06:07;;;;;;;19.90;15.65;;;7.30;99.90;;;;;;5062268;28;20052;-50
2022/09/28 06:08:33;;;;;;;37.25;16.45;;;7.30;99.90;;;;;;5064663;28;20055;-52
2022/09/28 06:11:00;;;;;;;20.40;15.88;;;7.20;99.90;;;;;;5050747;28;20044;-54
2022/09/28 06:13:26;;;;;;;34.75;15.98;;;7.20;99.90;;;;;;5056795;28;20504;-51
2022/09/28 06:15:53;;;;;;;61.60;16.55;;;7.20;99.90;;;;;;5069027;28;20660;-49
2022/09/28 06:18:19;;;;;;;185.48;20.95;;;7.20;99.90;;;;;;5067879;28;20044;-50
2022/09/28 06:20:45;;;;;;;154.93;18.27;;;7.20;99.90;;;;;;5071809;28;20052;-52
2022/09/28 06:23:12;;;;;;;85.05;16.05;;;7.10;99.90;;;;;;5070013;28;20393;-51
2022/09/28 06:25:38;;;;;;;35.78;14.98;;;7.20;99.90;;;;;;5071355;28;20091;-50
2022/09/28 06:28:12;;;;;;;36.78;16.65;;;7.20;99.90;;;;;;5050606;28;20060;-50
2022/09/28 06:30:39;;;;;;;26.02;17.17;;;7.20;99.90;;;;;;5050391;28;20234;-52
2022/09/28 06:33:07;;;;;;;26.42;16.73;;;7.30;99.90;;;;;;5070929;28;20060;-54
2022/09/28 06:35:34;;;;;;;23.92;17.75;;;7.30;99.90;;;;;;5056238;28;20901;-49
2022/09/28 06:38:09;;;;;;;22.55;18.45;;;7.60;99.90;;;;;;5079067;28;20047;-51
2022/09/28 06:40:35;;;;;;;19.67;17.17;;;7.60;99.90;;;;;;5049440;28;20135;-49
2022/09/28 06:43:05;;;;;;;20.17;17.50;;;7.70;99.90;;;;;;5051211;28;20060;-52
2022/09/28 06:45:33;;;;;;;23.42;18.55;;;7.70;99.90;;;;;;5043798;28;20053;-49
2022/09/28 06:48:00;;;;;;;25.10;18.42;;;7.70;99.90;;;;;;5047811;28;20080;-51
2022/09/28 06:50:32;;;;;;;19.85;17.75;;;7.70;99.90;;;;;;5049169;28;20047;-49
2022/09/28 06:52:59;;;;;;;21.88;17.98;;;7.90;99.90;;;;;;5050696;28;20285;-53
2022/09/28 06:55:26;;;;;;;21.27;17.85;;;7.90;99.90;;;;;;5052500;28;20499;-49
2022/09/28 06:58:04;;;;;;;21.30;17.92;;;8.20;99.90;;;;;;5045358;28;20498;-51
2022/09/28 07:00:33;;;;;;;21.38;18.25;;;8.40;99.90;;;;;;5052421;28;20106;-49
2022/09/28 07:03:02;;;;;;;21.30;18.42;;;8.80;99.90;;;;;;5047573;28;20045;-48
2022/09/28 07:05:28;;;;;;;19.58;17.58;;;9.20;99.90;;;;;;5051567;28;20090;-48
2022/09/28 07:07:57;;;;;;;17.67;15.85;;;9.60;99.90;;;;;;5045109;28;20052;-48
2022/09/28 07:10:26;;;;;;;18.17;16.33;;;9.80;99.90;;;;;;5029531;28;20431;-49
2022/09/28 07:12:53;;;;;;;17.40;15.68;;;10.10;99.90;;;;;;5058964;28;20123;-49
2022/09/28 07:15:19;;;;;;;16.80;15.10;;;10.40;99.90;;;;;;5045905;28;20054;-48
2022/09/28 07:17:45;;;;;;;16.50;14.60;;;10.50;99.90;;;;;;5044436;28;20092;-48
2022/09/28 07:20:12;;;;;;;18.40;15.70;;;10.70;99.90;;;;;;5047884;28;20042;-51
2022/09/28 07:22:43;;;;;;;15.38;13.85;;;10.90;99.90;;;;;;5051823;28;20060;-51
2022/09/28 07:25:09;;;;;;;15.30;13.80;;;11.00;99.90;;;;;;5052437;28;20048;-53
2022/09/28 07:27:36;;;;;;;14.10;12.60;;;11.20;99.90;;;;;;5055837;28;20040;-50
2022/09/28 07:30:04;;;;;;;13.75;12.43;;;11.30;99.90;;;;;;5029822;28;20511;-53
2022/09/28 07:32:31;;;;;;;12.88;11.55;;;11.40;99.90;;;;;;5047691;28;20041;-49
2022/09/28 07:34:56;;;;;;;10.93;9.82;;;11.50;99.90;;;;;;5059701;28;20095;-52
2022/09/28 07:37:23;;;;;;;11.40;10.23;;;11.60;99.90;;;;;;5051567;28;20041;-50
2022/09/28 07:42:33;;;;;;;10.43;8.48;;;11.90;99.90;;;;;;5047276;28;20109;-51
2022/09/28 07:44:58;;;;;;;10.07;8.07;;;12.00;99.90;;;;;;5026570;28;20040;-52
2022/09/28 07:47:30;;;;;;;9.35;7.22;;;12.10;99.90;;;;;;5051200;28;20055;-51
2022/09/28 07:50:05;;;;;;;8.88;7.93;;;12.20;99.90;;;;;;5050478;28;20056;-53
2022/09/28 07:52:33;;;;;;;9.05;6.82;;;12.30;99.90;;;;;;5052004;28;20041;-51
2022/09/28 07:55:01;;;;;;;7.95;6.60;;;12.30;99.90;;;;;;5038601;28;20122;-51
2022/09/28 07:57:27;;;;;;;7.13;6.32;;;12.50;99.90;;;;;;5054871;28;20053;-53
2022/09/28 07:59:53;;;;;;;11.30;7.38;;;12.40;99.90;;;;;;5036700;28;20049;-55
2022/09/28 08:02:20;;;;;;;8.05;6.55;;;12.50;99.90;;;;;;5031298;28;20870;-50
2022/09/28 08:04:49;;;;;;;8.35;5.15;;;12.60;99.90;;;;;;5050701;28;20644;-51
2022/09/28 08:07:16;;;;;;;5.38;4.43;;;12.70;99.90;;;;;;5049962;28;20522;-55
2022/09/28 08:09:45;;;;;;;6.32;5.10;;;12.80;99.90;;;;;;5052590;28;20119;-53
2022/09/28 08:12:12;;;;;;;5.60;4.80;;;12.70;99.90;;;;;;5043953;28;20120;-54
2022/09/28 08:14:38;;;;;;;7.88;5.05;;;12.70;99.90;;;;;;5049499;28;20048;-54
2022/09/28 08:17:05;;;;;;;7.55;4.55;;;12.80;99.90;;;;;;5043784;28;20055;-56
2022/09/28 08:22:18;;;;;;;5.75;3.97;;;12.90;99.90;;;;;;5044886;28;20141;-55
2022/09/28 08:24:45;;;;;;;5.32;4.18;;;13.00;99.90;;;;;;5049120;28;20044;-57
2022/09/28 08:27:12;;;;;;;5.88;3.60;;;13.10;99.90;;;;;;5049174;28;20475;-56
2022/09/28 08:29:38;;;;;;;8.23;4.55;;;13.20;99.90;;;;;;5043380;28;20154;-57
2022/09/28 08:32:07;;;;;;;6.03;4.82;;;13.20;99.90;;;;;;5043969;28;20559;-58
2022/09/28 08:34:41;;;;;;;6.45;4.63;;;13.10;99.90;;;;;;5057846;28;20391;-56
2022/09/28 08:37:11;;;;;;;9.88;6.05;;;13.20;99.90;;;;;;5055041;28;20155;-57
2022/09/28 08:39:37;;;;;;;9.13;6.00;;;13.10;99.90;;;;;;5043055;28;20131;-55
2022/09/28 08:42:21;;;;;;;9.25;5.07;;;13.00;99.90;;;;;;5058465;28;20052;-56
2022/09/28 08:44:51;;;;;;;6.55;5.80;;;13.10;99.90;;;;;;5081793;28;20060;-56
2022/09/28 08:50:25;;;;;;;7.03;5.65;;;13.20;99.90;;;;;;5064581;28;20067;-57
2022/09/28 08:52:58;;;;;;;5.78;5.18;;;13.20;99.90;;;;;;5072357;28;20652;-57
2022/09/28 08:55:33;;;;;;;6.90;4.82;;;13.20;99.90;;;;;;5066134;28;20670;-57
2022/09/28 08:58:16;;;;;;;6.97;5.07;;;13.30;99.90;;;;;;5074772;28;20124;-58
2022/09/28 09:00:49;;;;;;;7.93;4.90;;;13.40;99.90;;;;;;5072313;28;20086;-58
2022/09/28 09:03:24;;;;;;;8.98;4.75;;;13.30;99.90;;;;;;5079166;28;20044;-57
2022/09/28 09:06:18;;;;;;;8.05;5.63;;;13.40;99.90;;;;;;5063643;28;20463;-57
2022/09/28 09:09:03;;;;;;;5.10;4.05;;;13.50;99.90;;;;;;5069824;28;20113;-58
2022/09/28 09:11:55;;;;;;;6.32;3.30;;;13.70;99.90;;;;;;5074490;28;20445;-58
2022/09/28 09:14:26;;;;;;;5.50;3.45;;;13.80;99.90;;;;;;5079767;28;20056;-59
2022/09/28 09:17:05;;;;;;;4.03;3.30;;;13.80;99.90;;;;;;5077216;28;20052;-56
2022/09/28 09:19:53;;;;;;;4.78;3.22;;;13.70;99.90;;;;;;5066688;28;20054;-57
2022/09/28 09:22:39;;;;;;;6.47;3.70;;;13.60;99.90;;;;;;5070599;28;20044;-57
2022/09/28 09:25:27;;;;;;;5.68;3.38;;;13.60;99.90;;;;;;5075619;28;20528;-58
2022/09/28 09:27:52;;;;;;;6.13;3.00;;;13.70;99.90;;;;;;5062335;28;20071;-58
2022/09/28 09:30:25;;;;;;;6.13;3.28;;;14.00;99.90;;;;;;5073867;28;20507;-58
2022/09/28 09:33:22;;;;;;;5.95;3.42;;;14.20;99.90;;;;;;5063819;28;20062;-57
2022/09/28 09:35:57;;;;;;;3.90;3.15;;;14.40;99.90;;;;;;5080236;28;20572;-58
2022/09/28 09:39:05;;;;;;;10.23;4.30;;;14.70;99.90;;;;;;5070858;28;20084;-58
2022/09/28 09:42:03;;;;;;;4.50;2.20;;;14.90;99.90;;;;;;4996702;28;20108;-58
2022/09/28 09:44:38;;;;;;;4.68;1.75;;;15.30;99.90;;;;;;4959566;28;20443;-58
2022/09/28 09:47:17;;;;;;;2.70;1.13;;;15.60;99.90;;;;;;4941308;28;20082;-58
2022/09/28 09:49:50;;;;;;;1.50;0.85;;;15.60;99.90;;;;;;4958785;28;20465;-58
2022/09/28 09:52:31;;;;;;;3.97;1.02;;;15.70;99.90;;;;;;4966128;28;20484;-59
2022/09/28 09:55:02;;;;;;;3.10;0.90;;;15.80;99.90;;;;;;4964236;28;20485;-58
2022/09/28 09:57:45;;;;;;;4.70;0.90;;;15.70;99.90;;;;;;4966356;28;20770;-58
2022/09/28 10:00:15;;;;;;;3.45;0.85;;;15.70;99.90;;;;;;4958792;28;20062;-59
2022/09/28 10:02:43;;;;;;;3.35;0.90;;;15.60;99.90;;;;;;4960895;28;20534;-57
2022/09/28 10:05:12;;;;;;;2.83;0.90;;;15.20;99.90;;;;;;4955229;28;20059;-58
2022/09/28 10:07:51;;;;;;;2.97;0.70;;;15.00;99.90;;;;;;4966710;28;20509;-58
2022/09/28 10:10:22;;;;;;;1.50;0.77;;;15.00;99.90;;;;;;4962780;28;20105;-55
2022/09/28 10:12:50;;;;;;;14.85;2.47;;;15.10;99.90;;;;;;4970458;28;20058;-54
2022/09/28 10:15:23;;;;;;;4.72;0.98;;;15.00;99.90;;;;;;4964827;28;20062;-58
2022/09/28 10:17:48;;;;;;;;;;;14.70;99.90;;;;;;4961792;28;20867;-58
2022/09/28 10:20:15;;;;;;;2.97;0.70;;;14.70;99.90;;;;;;5016140;28;19929;-59
2022/09/28 10:22:42;;;;;;;4.50;0.70;;;14.80;99.90;;;;;;5052317;28;20078;-58
2022/09/28 10:25:11;;;;;;;1.73;0.60;;;14.90;99.90;;;;;;5049361;28;20049;-58
2022/09/28 10:27:43;;;;;;;2.60;0.80;;;15.00;99.90;;;;;;5058361;28;20045;-58
2022/09/28 10:30:13;;;;;;;1.35;0.63;;;15.10;99.90;;;;;;5055079;28;20156;-58
2022/09/28 10:32:46;;;;;;;3.40;0.70;;;15.20;99.90;;;;;;5045643;28;20052;-58
2022/09/28 10:35:13;;;;;;;1.35;0.90;;;15.40;99.90;;;;;;5062893;28;20570;-58
2022/09/28 10:37:53;;;;;;;3.20;0.75;;;15.50;99.90;;;;;;5055979;28;20056;-58
2022/09/28 10:40:29;;;;;;;1.40;0.52;;;15.60;99.90;;;;;;5053486;28;20057;-61
2022/09/28 10:43:25;;;;;;;1.33;0.85;;;15.70;99.90;;;;;;5057960;28;20096;-58
2022/09/28 10:46:08;;;;;;;1.13;0.52;;;15.70;99.90;;;;;;5024579;28;20056;-58
2022/09/28 10:48:57;;;;;;;1.88;0.50;;;15.70;99.90;;;;;;5045558;28;20084;-59
2022/09/28 10:51:46;;;;;;;1.10;0.55;;;15.60;99.90;;;;;;5052065;28;20053;-59
2022/09/28 10:54:27;;;;;;;0.77;0.57;;;15.60;99.90;;;;;;5052113;28;20052;-58
2022/09/28 10:56:54;;;;;;;1.88;0.60;;;15.50;99.90;;;;;;5052663;28;20124;-58
2022/09/28 10:59:28;;;;;;;1.67;0.60;;;15.40;99.90;;;;;;5051586;28;20040;-58
2022/09/28 11:02:19;;;;;;;2.05;0.60;;;15.20;99.90;;;;;;5053301;28;20221;-58
2022/09/28 11:04:54;;;;;;;3.05;0.73;;;15.10;99.90;;;;;;5041045;28;20438;-58
2022/09/28 11:07:25;;;;;;;2.38;0.80;;;14.90;99.90;;;;;;5047543;28;20503;-57
2022/09/28 11:09:53;;;;;;;0.73;0.60;;;14.90;99.90;;;;;;5046189;28;20053;-58
2022/09/28 11:12:22;;;;;;;1.83;0.50;;;15.00;99.90;;;;;;5034916;28;20053;-57
2022/09/28 11:14:55;;;;;;;2.67;0.95;;;15.00;99.90;;;;;;5046068;28;20052;-58
2022/09/28 11:17:39;;;;;;;2.55;0.60;;;14.90;99.90;;;;;;5045158;28;20412;-58
2022/09/28 11:20:23;;;;;;;1.35;0.65;;;15.00;99.90;;;;;;5046760;28;20096;-58
2022/09/28 11:22:51;;;;;;;1.88;0.55;;;15.00;99.90;;;;;;5050440;28;20044;-59
2022/09/28 11:25:17;;;;;;;2.75;0.73;;;15.10;99.90;;;;;;5049765;28;20063;-58
2022/09/28 11:27:51;;;;;;;2.72;0.60;;;15.10;99.90;;;;;;5052328;28;20053;-58
2022/09/28 11:30:22;;;;;;;1.77;0.60;;;15.20;99.90;;;;;;5049928;28;20056;-59
2022/09/28 11:32:48;;;;;;;1.20;0.60;;;15.30;99.90;;;;;;5047321;28;20159;-59
2022/09/28 11:35:23;;;;;;;3.38;0.60;;;15.40;99.90;;;;;;5054629;28;20502;-60
2022/09/28 11:38:30;;;;;;;1.92;0.55;;;15.50;99.90;;;;;;5052249;28;20509;-59
2022/09/28 11:41:22;;;;;;;0.98;0.50;;;15.50;99.90;;;;;;5001871;28;20162;-60
2022/09/28 11:44:14;;;;;;;0.45;0.35;;;15.70;99.90;;;;;;5015041;28;20053;-59
2022/09/28 11:46:54;;;;;;;1.00;0.50;;;15.70;99.90;;;;;;5019402;28;20057;-58
2022/09/28 11:49:32;;;;;;;1.50;0.50;;;15.90;99.90;;;;;;5020318;28;20050;-58
2022/09/28 11:52:02;;;;;;;2.47;0.55;;;15.90;99.90;;;;;;5023629;28;20061;-59
2022/09/28 11:54:44;;;;;;;1.65;0.50;;;16.00;99.90;;;;;;5021196;28;20120;-59
2022/09/28 11:57:19;;;;;;;0.68;0.40;;;16.20;99.90;;;;;;5024371;28;20122;-59
2022/09/28 12:00:01;;;;;;;2.30;0.60;;;16.30;99.90;;;;;;5019367;28;20830;-59
2022/09/28 12:02:34;;;;;;;0.70;0.40;;;16.40;99.90;;;;;;5017910;28;20084;-59
2022/09/28 12:05:12;;;;;;;2.05;0.68;;;16.60;99.90;;;;;;5019322;28;20584;-58
2022/09/28 12:07:45;;;;;;;1.70;0.60;;;16.80;99.90;;;;;;5018342;28;20151;-59
2022/09/28 12:10:15;;;;;;;0.70;0.52;;;16.90;99.90;;;;;;5009863;28;20546;-60
2022/09/28 12:12:56;;;;;;;2.72;0.55;;;16.90;99.90;;;;;;5020910;28;20047;-58
2022/09/28 12:15:27;;;;;;;0.40;0.40;;;17.10;99.90;;;;;;5024019;28;20432;-60
2022/09/28 12:18:20;;;;;;;3.17;0.77;;;17.20;99.90;;;;;;5038717;28;20595;-59
2022/09/28 12:21:06;;;;;;;1.23;0.50;;;17.10;99.90;;;;;;5006943;28;20073;-65
2022/09/28 12:23:39;;;;;;;1.50;0.60;;;17.00;99.90;;;;;;5000568;28;20312;-65
2022/09/28 12:26:19;;;;;;;2.13;1.13;;;17.00;99.90;;;;;;5004115;28;20119;-65
2022/09/28 12:28:48;;;;;;;0.57;0.50;;;16.90;99.90;;;;;;5003245;28;20148;-65
2022/09/28 12:31:37;;;;;;;1.08;0.40;;;16.70;99.90;;;;;;4989277;28;20061;-65
2022/09/28 12:34:04;;;;;;;1.42;0.50;;;16.50;99.90;;;;;;5001271;28;20119;-66
2022/09/28 12:36:55;;;;;;;0.68;0.40;;;16.30;99.90;;;;;;4996626;28;20050;-65
2022/09/28 12:39:51;;;;;;;1.45;0.35;;;16.10;99.90;;;;;;5011361;28;20080;-65
2022/09/28 12:42:27;;;;;;;1.33;0.50;;;16.00;99.90;;;;;;4995720;28;20096;-64
2022/09/28 12:45:12;;;;;;;0.60;0.30;;;15.90;99.90;;;;;;5001184;28;20136;-64
2022/09/28 12:48:06;;;;;;;0.63;0.40;;;15.80;99.90;;;;;;4999377;28;20049;-65
2022/09/28 12:50:51;;;;;;;0.55;0.40;;;15.80;99.90;;;;;;4996737;28;20504;-64
2022/09/28 12:53:41;;;;;;;0.57;0.40;;;15.80;99.90;;;;;;4982903;28;20459;-65
2022/09/28 12:56:15;;;;;;;1.80;0.60;;;15.80;99.90;;;;;;4999890;28;20412;-65
2022/09/28 12:58:49;;;;;;;1.85;0.55;;;15.90;99.90;;;;;;5058004;28;20066;-65
2022/09/28 13:01:30;;;;;;;1.65;0.50;;;15.80;99.90;;;;;;5054542;28;20049;-65
2022/09/28 13:04:03;;;;;;;2.50;0.60;;;15.90;99.90;;;;;;5050043;28;20054;-66
2022/09/28 13:06:47;;;;;;;2.03;0.57;;;15.90;99.90;;;;;;5058655;28;20072;-66
2022/09/28 13:09:25;;;;;;;0.65;0.40;;;16.10;99.90;;;;;;5047966;28;20528;-66
2022/09/28 13:11:59;;;;;;;0.88;0.60;;;16.10;99.90;;;;;;5047295;28;20060;-66
2022/09/28 13:14:40;;;;;;;1.25;0.60;;;16.10;99.90;;;;;;5056450;28;20049;-64
2022/09/28 13:17:25;;;;;;;1.08;0.50;;;16.20;99.90;;;;;;5048490;28;20052;-65
2022/09/28 13:20:06;;;;;;;1.77;0.80;;;16.00;99.90;;;;;;5050857;28;20414;-65
2022/09/28 13:22:52;;;;;;;3.63;2.30;;;15.80;99.90;;;;;;5055388;28;20139;-64
2022/09/28 13:25:20;;;;;;;1.75;0.60;;;15.60;99.90;;;;;;5046008;28;20057;-65